createdAt,value
2018-06-10T00:00:26.008Z,100989.59
2018-06-10T00:02:54.722Z,100983.66
2018-06-10T00:05:23.273Z,100974.62
2018-06-10T00:07:52.064Z,100967.42
2018-06-10T00:10:20.850Z,100963.88
2018-06-10T00:12:49.654Z,100959.22
2018-06-10T00:15:18.487Z,100959.50
2018-06-10T00:17:47.098Z,100956.20
2018-06-10T00:20:15.656Z,100959.08
2018-06-10T00:22:44.040Z,100965.87
2018-06-10T00:25:12.700Z,100973.17
2018-06-10T00:27:40.982Z,100982.33
2018-06-10T00:30:09.740Z,100979.88
2018-06-10T00:32:38.545Z,100979.17
2018-06-10T00:35:07.181Z,100980.09
2018-06-10T00:37:35.717Z,100982.80
2018-06-10T00:40:05.008Z,100979.16
2018-06-10T00:42:34.017Z,100980.61
2018-06-10T00:45:02.466Z,100987.83
2018-06-10T00:47:31.309Z,100990.03
2018-06-10T00:49:59.711Z,100997.09
2018-06-10T00:52:28.301Z,100996.37
2018-06-10T00:54:56.692Z,101005.95
2018-06-10T00:57:25.381Z,101012.61
2018-06-10T00:59:53.916Z,101008.03
2018-06-10T01:02:22.299Z,101003.44
2018-06-10T01:04:50.729Z,101001.16
2018-06-10T01:07:19.582Z,100990.19
2018-06-10T01:09:48.420Z,100993.97
2018-06-10T01:12:17.207Z,100988.88
2018-06-10T01:14:46.016Z,100993.50
2018-06-10T01:17:15.037Z,100997.38
2018-06-10T01:19:43.436Z,100993.62
2018-06-10T01:22:12.185Z,100995.34
2018-06-10T01:24:40.858Z,100979.33
2018-06-10T01:27:09.310Z,100983.69
2018-06-10T01:29:37.687Z,100984.48
2018-06-10T01:32:06.272Z,100977.17
2018-06-10T01:34:34.888Z,100970.16
2018-06-10T01:37:03.292Z,100975.66
2018-06-10T01:39:32.076Z,100962.02
2018-06-10T01:42:00.651Z,100955.11
2018-06-10T01:44:29.491Z,100954.34
2018-06-10T01:46:58.168Z,100951.05
2018-06-10T01:49:26.854Z,100948.84
2018-06-10T01:51:55.681Z,100946.97
2018-06-10T01:54:24.022Z,100937.75
2018-06-10T01:56:52.847Z,100938.67
2018-06-10T01:59:21.450Z,100936.52
2018-06-10T02:01:50.101Z,100937.52
2018-06-10T02:04:18.878Z,100938.55
2018-06-10T02:06:47.691Z,100934.67
2018-06-10T02:09:16.726Z,100927.48
2018-06-10T02:11:45.316Z,100921.43
2018-06-10T02:14:13.767Z,100914.42
2018-06-10T02:16:42.459Z,100916.11
2018-06-10T02:19:11.044Z,100916.64
2018-06-10T02:21:39.681Z,100910.90
2018-06-10T02:24:08.246Z,100914.32
2018-06-10T02:26:37.009Z,100911.71
2018-06-10T02:29:05.465Z,100913.62
2018-06-10T02:31:34.371Z,100905.66
2018-06-10T02:34:02.969Z,100907.10
2018-06-10T02:36:31.528Z,100904.63
2018-06-10T02:39:00.119Z,100896.62
2018-06-10T02:41:28.712Z,100893.63
2018-06-10T02:43:57.598Z,100891.16
2018-06-10T02:46:26.287Z,100895.91
2018-06-10T02:48:54.943Z,100893.98
2018-06-10T02:51:23.420Z,100892.33
2018-06-10T02:53:52.232Z,100887.12
2018-06-10T02:56:20.968Z,100888.98
2018-06-10T02:58:49.589Z,100885.67
2018-06-10T03:01:18.548Z,100896.48
2018-06-10T03:03:47.090Z,100899.20
2018-06-10T03:06:15.701Z,100897.92
2018-06-10T03:08:44.259Z,100907.68
2018-06-10T03:11:12.928Z,100903.36
2018-06-10T03:13:41.574Z,100897.77
2018-06-10T03:16:10.260Z,100894.78
2018-06-10T03:18:38.678Z,100886.80
2018-06-10T03:21:07.290Z,100884.00
2018-06-10T03:23:35.723Z,100892.22
2018-06-10T03:26:04.391Z,100899.61
2018-06-10T03:28:32.835Z,100902.25
2018-06-10T03:31:01.320Z,100896.62
2018-06-10T03:33:29.880Z,100904.88
2018-06-10T03:35:58.644Z,100902.27
2018-06-10T03:38:27.553Z,100895.13
2018-06-10T03:40:56.126Z,100894.45
2018-06-10T03:43:24.824Z,100887.42
2018-06-10T03:45:53.468Z,100889.06
2018-06-10T03:48:22.160Z,100885.70
2018-06-10T03:50:50.481Z,100891.42
2018-06-10T03:53:18.895Z,100888.23
2018-06-10T03:55:47.450Z,100888.71
2018-06-10T03:58:15.831Z,100890.33
2018-06-10T04:00:44.272Z,100899.71
2018-06-10T04:03:13.080Z,100902.16
2018-06-10T04:05:41.825Z,100898.73
2018-06-10T04:08:10.376Z,100889.69
2018-06-10T04:10:38.984Z,100903.34
2018-06-10T04:13:07.662Z,100906.55
2018-06-10T04:15:36.252Z,100906.62
2018-06-10T04:18:05.104Z,100904.52
2018-06-10T04:20:33.868Z,100899.50
2018-06-10T04:23:02.400Z,100900.31
2018-06-10T04:25:31.031Z,100900.46
2018-06-10T04:27:59.548Z,100900.95
2018-06-10T04:30:28.352Z,100898.09
2018-06-10T04:32:57.020Z,100906.17
2018-06-10T04:35:25.475Z,100908.57
2018-06-10T04:37:54.052Z,100904.91
2018-06-10T04:40:22.567Z,100907.41
2018-06-10T04:42:51.133Z,100909.21
2018-06-10T04:45:19.817Z,100915.48
2018-06-10T04:47:48.613Z,100914.98
2018-06-10T04:50:17.312Z,100925.36
2018-06-10T04:52:45.709Z,100924.56
2018-06-10T04:55:14.392Z,100934.77
2018-06-10T04:57:43.138Z,100941.08
2018-06-10T05:00:11.866Z,100940.56
2018-06-10T05:02:40.395Z,100953.85
2018-06-10T05:05:09.060Z,100955.28
2018-06-10T05:07:37.571Z,100952.16
2018-06-10T05:10:05.971Z,100950.09
2018-06-10T05:12:34.747Z,100950.77
2018-06-10T05:15:03.316Z,100946.05
2018-06-10T05:17:31.785Z,100950.38
2018-06-10T05:20:00.441Z,100961.14
2018-06-10T05:22:28.884Z,100950.33
2018-06-10T05:24:57.222Z,100954.95
2018-06-10T05:27:25.738Z,100955.41
2018-06-10T05:29:54.023Z,100960.30
2018-06-10T05:32:22.564Z,100963.50
2018-06-10T05:34:51.038Z,100962.23
2018-06-10T05:37:19.485Z,100963.86
2018-06-10T05:39:48.049Z,100958.70
2018-06-10T05:42:16.799Z,100969.45
2018-06-10T05:44:45.428Z,100976.32
2018-06-10T05:47:14.096Z,100967.07
2018-06-10T05:49:42.735Z,100969.84
2018-06-10T05:52:11.244Z,100973.34
2018-06-10T05:54:39.936Z,100977.73
2018-06-10T05:57:08.557Z,100974.61
2018-06-10T05:59:36.926Z,100977.11
2018-06-10T06:02:05.756Z,100982.80
2018-06-10T06:04:34.529Z,100972.55
2018-06-10T06:07:03.419Z,100976.09
2018-06-10T06:09:32.185Z,100968.95
2018-06-10T06:12:00.494Z,100965.10
2018-06-10T06:14:29.345Z,100965.75
2018-06-10T06:16:58.033Z,100971.09
2018-06-10T06:19:26.750Z,100966.33
2018-06-10T06:21:55.268Z,100969.37
2018-06-10T06:24:23.817Z,100968.89
2018-06-10T06:26:52.387Z,100971.09
2018-06-10T06:29:20.635Z,100978.11
2018-06-10T06:31:49.308Z,100974.17
2018-06-10T06:34:17.896Z,100980.45
2018-06-10T06:36:46.419Z,100983.95
2018-06-10T06:39:14.668Z,100988.25
2018-06-10T06:41:43.200Z,100981.46
2018-06-10T06:44:11.837Z,100988.01
2018-06-10T06:46:40.493Z,100985.17
2018-06-10T06:49:09.603Z,100996.24
2018-06-10T06:51:38.194Z,100993.62
2018-06-10T06:54:06.456Z,100997.75
2018-06-10T06:56:34.941Z,100992.87
2018-06-10T06:59:03.568Z,101003.89
2018-06-10T07:01:31.978Z,101008.11
2018-06-10T07:04:00.727Z,101008.38
2018-06-10T07:06:29.544Z,101013.27
2018-06-10T07:08:57.934Z,101007.88
2018-06-10T07:11:27.010Z,101006.23
2018-06-10T07:13:55.763Z,101001.40
2018-06-10T07:16:24.282Z,101002.34
2018-06-10T07:18:52.712Z,101001.94
2018-06-10T07:21:21.479Z,101001.69
2018-06-10T07:23:50.061Z,100999.39
2018-06-10T07:26:18.450Z,101008.67
2018-06-10T07:28:47.038Z,101005.77
2018-06-10T07:31:15.788Z,101004.48
2018-06-10T07:33:44.703Z,101011.79
2018-06-10T07:36:14.308Z,101024.18
2018-06-10T07:38:42.736Z,101016.61
2018-06-10T07:41:11.445Z,101018.08
2018-06-10T07:43:40.084Z,101010.60
2018-06-10T07:46:08.793Z,101012.80
2018-06-10T07:48:37.272Z,101010.38
2018-06-10T07:51:05.772Z,101007.59
2018-06-10T07:53:34.431Z,101006.45
2018-06-10T07:56:02.913Z,101013.48
2018-06-10T07:58:31.446Z,101013.54
2018-06-10T08:01:00.114Z,101010.47
2018-06-10T08:03:28.715Z,101020.67
2018-06-10T08:05:57.204Z,101006.61
2018-06-10T08:08:26.258Z,101006.90
2018-06-10T08:10:55.292Z,101006.34
2018-06-10T08:13:23.775Z,101010.17
2018-06-10T08:15:52.323Z,101011.33
2018-06-10T08:18:20.958Z,101013.50
2018-06-10T08:20:49.531Z,101006.25
2018-06-10T08:23:18.136Z,100996.03
2018-06-10T08:25:46.724Z,101000.89
2018-06-10T08:28:15.388Z,100992.98
2018-06-10T08:30:43.846Z,100992.66
2018-06-10T08:33:12.671Z,100987.69
2018-06-10T08:35:41.699Z,100986.58
2018-06-10T08:38:10.206Z,100984.72
2018-06-10T08:40:38.688Z,100984.69
2018-06-10T08:43:07.151Z,100987.59
2018-06-10T08:45:35.657Z,100987.59
2018-06-10T08:48:04.221Z,100983.05
2018-06-10T08:50:32.843Z,100978.61
2018-06-10T08:53:01.204Z,100974.84
2018-06-10T08:55:29.869Z,100976.61
2018-06-10T08:57:58.427Z,100975.19
2018-06-10T09:00:27.052Z,100980.31
2018-06-10T09:02:55.598Z,100979.64
2018-06-10T09:05:24.240Z,100979.14
2018-06-10T09:07:52.760Z,100980.42
2018-06-10T09:10:21.541Z,100986.09
2018-06-10T09:12:49.968Z,100990.09
2018-06-10T09:15:18.688Z,100989.55
2018-06-10T09:17:47.251Z,100987.81
2018-06-10T09:20:15.535Z,100992.68
2018-06-10T09:22:44.173Z,100992.82
2018-06-10T09:25:12.808Z,100994.25
2018-06-10T09:27:41.186Z,100988.49
2018-06-10T09:30:10.286Z,100996.61
2018-06-10T09:32:38.659Z,101000.59
2018-06-10T09:35:07.048Z,101003.09
2018-06-10T09:37:35.594Z,100998.62
2018-06-10T09:40:04.493Z,101003.52
2018-06-10T09:43:37.258Z,100997.77
2018-06-10T09:46:05.988Z,100996.92
2018-06-10T09:48:34.690Z,100995.19
2018-06-10T09:52:19.268Z,100992.55
2018-06-10T09:54:47.732Z,100995.22
2018-06-10T09:57:16.252Z,100991.07
2018-06-10T09:59:44.858Z,100980.86
2018-06-10T10:02:13.617Z,100988.54
2018-06-10T10:04:42.274Z,100982.94
2018-06-10T10:07:10.797Z,100987.27
2018-06-10T10:09:39.364Z,100975.53
2018-06-10T10:12:08.001Z,100986.14
2018-06-10T10:14:36.933Z,100990.98
2018-06-10T10:17:05.455Z,100988.33
2018-06-10T10:19:34.329Z,100993.18
2018-06-10T10:22:03.208Z,100996.01
2018-06-10T10:24:31.792Z,100997.61
2018-06-10T10:27:00.525Z,101004.83
2018-06-10T10:29:28.960Z,101005.78
2018-06-10T10:31:57.382Z,101003.46
2018-06-10T10:34:26.002Z,101001.43
2018-06-10T10:36:54.528Z,100996.06
2018-06-10T10:39:23.924Z,100999.58
2018-06-10T10:41:52.335Z,101002.24
2018-06-10T10:44:21.012Z,101002.67
2018-06-10T10:46:49.532Z,100995.14
2018-06-10T10:49:18.102Z,100999.08
2018-06-10T10:51:46.665Z,100995.14
2018-06-10T10:54:15.592Z,101001.05
2018-06-10T10:56:44.035Z,100996.50
2018-06-10T10:59:12.837Z,100989.25
2018-06-10T11:01:44.309Z,100993.51
2018-06-10T11:04:13.015Z,100995.39
2018-06-10T11:06:41.513Z,100994.31
2018-06-10T11:09:10.061Z,100990.41
2018-06-10T11:11:38.408Z,100994.78
2018-06-10T11:14:07.062Z,100992.91
2018-06-10T11:16:35.815Z,100990.14
2018-06-10T11:19:04.381Z,100995.39
2018-06-10T11:21:32.909Z,100989.14
2018-06-10T11:24:02.257Z,100990.10
2018-06-10T11:26:31.162Z,100989.41
2018-06-10T11:28:59.838Z,100989.51
2018-06-10T11:31:28.572Z,100992.77
2018-06-10T11:33:57.175Z,100992.52
2018-06-10T11:36:25.793Z,100997.47
2018-06-10T11:38:54.424Z,100985.44
2018-06-10T11:41:23.261Z,100991.03
2018-06-10T11:43:51.700Z,100986.52
2018-06-10T11:46:20.437Z,100988.33
2018-06-10T11:48:49.185Z,100988.90
2018-06-10T11:51:17.567Z,100989.00
2018-06-10T11:53:46.121Z,100982.05
2018-06-10T11:56:14.802Z,100989.62
2018-06-10T11:58:43.328Z,100989.48
2018-06-10T12:01:11.957Z,100995.66
2018-06-10T12:03:40.624Z,100998.45
2018-06-10T12:06:09.361Z,100995.06
2018-06-10T12:08:38.001Z,100991.24
2018-06-10T12:11:06.924Z,100983.78
2018-06-10T12:13:35.507Z,100985.73
2018-06-10T12:16:04.317Z,100990.14
2018-06-10T12:18:32.833Z,100992.69
2018-06-10T12:21:01.413Z,100993.16
2018-06-10T12:23:30.242Z,100991.28
2018-06-10T12:25:58.952Z,100981.34
2018-06-10T12:28:27.479Z,100979.48
2018-06-10T12:30:55.996Z,100985.44
2018-06-10T12:33:24.945Z,100978.47
2018-06-10T12:35:53.488Z,100977.58
2018-06-10T12:38:21.785Z,100974.69
2018-06-10T12:40:50.630Z,100978.61
2018-06-10T12:43:19.150Z,100970.51
2018-06-10T12:45:47.914Z,100971.38
2018-06-10T12:48:16.455Z,100964.03
2018-06-10T12:50:45.105Z,100965.81
2018-06-10T12:53:14.030Z,100975.98
2018-06-10T12:55:42.812Z,100972.02
2018-06-10T12:58:11.539Z,100968.46
2018-06-10T13:00:40.007Z,100963.74
2018-06-10T13:03:08.716Z,100968.15
2018-06-10T13:05:37.298Z,100970.50
2018-06-10T13:08:06.377Z,100956.68
2018-06-10T13:10:35.205Z,100953.50
2018-06-10T13:13:03.623Z,100948.48
2018-06-10T13:15:32.166Z,100953.00
2018-06-10T13:18:01.055Z,100954.77
2018-06-10T13:20:29.599Z,100942.77
2018-06-10T13:22:58.272Z,100957.07
2018-06-10T13:25:26.896Z,100949.92
2018-06-10T13:27:55.361Z,100956.45
2018-06-10T13:30:24.245Z,100950.58
2018-06-10T13:32:52.856Z,100954.66
2018-06-10T13:35:21.303Z,100948.64
2018-06-10T13:37:49.896Z,100944.94
2018-06-10T13:40:18.492Z,100942.59
2018-06-10T13:42:47.072Z,100946.27
2018-06-10T13:45:15.709Z,100940.92
2018-06-10T13:47:44.432Z,100935.96
2018-06-10T13:50:13.143Z,100930.17
2018-06-10T13:52:41.607Z,100933.59
2018-06-10T13:55:10.260Z,100929.97
2018-06-10T13:57:38.812Z,100938.06
2018-06-10T14:00:07.894Z,100935.52
2018-06-10T14:02:36.539Z,100928.09
2018-06-10T14:05:06.084Z,100932.17
2018-06-10T14:07:35.017Z,100929.55
2018-06-10T14:10:03.871Z,100928.94
2018-06-10T14:12:32.365Z,100931.20
2018-06-10T14:15:00.607Z,100922.63
2018-06-10T14:17:29.174Z,100931.05
2018-06-10T14:19:57.797Z,100933.52
2018-06-10T14:22:26.277Z,100930.45
2018-06-10T14:24:54.713Z,100925.33
2018-06-10T14:27:23.201Z,100919.92
2018-06-10T14:29:51.880Z,100924.95
2018-06-10T14:32:20.349Z,100914.89
2018-06-10T14:34:48.888Z,100912.67
2018-06-10T14:37:17.869Z,100915.55
2018-06-10T14:39:46.577Z,100911.13
2018-06-10T14:42:15.268Z,100901.31
2018-06-10T14:44:50.357Z,100897.31
2018-06-10T14:47:19.000Z,100899.73
2018-06-10T14:49:47.406Z,100900.91
2018-06-10T14:52:16.017Z,100900.23
2018-06-10T14:54:44.501Z,100895.87
2018-06-10T14:57:13.533Z,100890.02
2018-06-10T14:59:41.941Z,100893.39
2018-06-10T15:02:10.646Z,100897.49
2018-06-10T15:04:39.224Z,100887.38
2018-06-10T15:07:08.098Z,100878.98
2018-06-10T15:09:36.862Z,100877.84
2018-06-10T15:12:05.529Z,100878.52
2018-06-10T15:14:34.117Z,100881.25
2018-06-10T15:17:03.389Z,100878.36
2018-06-10T15:19:32.189Z,100878.24
2018-06-10T15:22:00.793Z,100881.52
2018-06-10T15:24:29.342Z,100876.55
2018-06-10T15:26:58.260Z,100882.10
2018-06-10T15:29:26.799Z,100887.48
2018-06-10T15:31:55.344Z,100887.66
2018-06-10T15:34:25.302Z,100887.52
2018-06-10T15:36:54.401Z,100886.83
2018-06-10T15:39:23.192Z,100895.22
2018-06-10T15:41:51.677Z,100887.58
2018-06-10T15:44:20.276Z,100883.77
2018-06-10T15:46:48.626Z,100875.95
2018-06-10T15:49:17.251Z,100873.55
2018-06-10T15:51:45.989Z,100872.01
2018-06-10T15:54:14.396Z,100873.41
2018-06-10T15:56:42.959Z,100876.72
2018-06-10T15:59:11.588Z,100872.38
2018-06-10T16:01:40.121Z,100877.48
2018-06-10T16:04:08.664Z,100870.04
2018-06-10T16:06:37.256Z,100869.69
2018-06-10T16:09:07.437Z,100873.34
2018-06-10T16:11:36.055Z,100871.05
2018-06-10T16:14:04.606Z,100868.10
2018-06-10T16:16:33.408Z,100876.53
2018-06-10T16:19:02.333Z,100878.27
2018-06-10T16:21:30.588Z,100876.70
2018-06-10T16:23:59.198Z,100883.13
2018-06-10T16:26:27.736Z,100873.55
2018-06-10T16:28:56.305Z,100880.00
2018-06-10T16:31:32.535Z,100875.67
2018-06-10T16:34:01.394Z,100872.73
2018-06-10T16:36:32.083Z,100870.70
2018-06-10T16:39:15.152Z,100862.70
2018-06-10T16:41:43.630Z,100862.10
2018-06-10T16:44:12.176Z,100861.27
2018-06-10T16:46:40.739Z,100858.75
2018-06-10T16:49:09.179Z,100866.75
2018-06-10T16:51:37.635Z,100874.02
2018-06-10T16:54:06.295Z,100872.50
2018-06-10T16:56:35.186Z,100872.45
2018-06-10T16:59:07.498Z,100872.12
2018-06-10T17:01:36.382Z,100873.89
2018-06-10T17:04:05.711Z,100868.81
2018-06-10T17:06:34.250Z,100870.20
2018-06-10T17:09:04.582Z,100876.45
2018-06-10T17:11:33.059Z,100872.31
2018-06-10T17:14:18.537Z,100882.67
2018-06-10T17:16:47.055Z,100886.48
2018-06-10T17:19:15.755Z,100897.72
2018-06-10T17:21:44.282Z,100896.62
2018-06-10T17:24:12.839Z,100895.31
2018-06-10T17:26:41.590Z,100896.70
2018-06-10T17:29:10.486Z,100895.19
2018-06-10T17:31:39.132Z,100899.35
2018-06-10T17:34:07.747Z,100901.64
2018-06-10T17:36:36.244Z,100901.64
2018-06-10T17:39:07.561Z,100902.17
2018-06-10T17:41:36.282Z,100898.53
2018-06-10T17:44:05.174Z,100897.10
2018-06-10T17:46:33.692Z,100902.45
2018-06-10T17:49:02.340Z,100900.08
2018-06-10T17:51:30.945Z,100899.77
2018-06-10T17:53:59.552Z,100902.02
2018-06-10T17:56:28.496Z,100906.09
2018-06-10T17:58:57.156Z,100904.52
2018-06-10T18:01:25.692Z,100906.79
2018-06-10T18:03:54.337Z,100903.27
2018-06-10T18:06:22.967Z,100905.42
2018-06-10T18:08:51.490Z,100905.88
2018-06-10T18:11:20.101Z,100896.95
2018-06-10T18:13:48.731Z,100894.37
2018-06-10T18:16:17.165Z,100893.70
2018-06-10T18:18:45.966Z,100892.07
2018-06-10T18:21:14.897Z,100884.16
2018-06-10T18:23:43.222Z,100891.73
2018-06-10T18:26:11.766Z,100894.04
2018-06-10T19:24:09.149Z,100956.28
2018-06-10T19:26:37.831Z,100966.42
2018-06-10T19:29:06.255Z,100957.52
2018-06-10T19:31:34.651Z,100948.80
2018-06-10T19:34:03.230Z,100956.89
2018-06-10T19:36:31.733Z,100965.51
2018-06-10T19:39:00.452Z,100973.58
2018-06-10T19:41:28.998Z,100967.78
2018-06-10T19:43:57.519Z,100965.60
2018-06-10T19:46:26.185Z,100969.55
2018-06-10T19:48:54.805Z,100978.56
2018-06-10T19:51:23.107Z,100981.55
2018-06-10T19:53:51.764Z,100983.47
2018-06-10T19:56:20.431Z,100994.04
2018-06-10T19:58:49.186Z,101001.38
2018-06-10T20:01:17.684Z,101014.33
2018-06-10T20:03:46.329Z,101026.13
2018-06-10T20:06:14.873Z,101021.92
2018-06-10T20:08:43.462Z,101021.41
2018-06-10T20:11:11.997Z,101014.42
2018-06-10T20:13:40.429Z,101024.55
2018-06-10T20:16:09.209Z,101024.19
2018-06-10T20:18:37.645Z,101024.83
2018-06-10T20:21:06.297Z,101027.34
2018-06-10T20:23:34.741Z,101025.55
2018-06-10T20:26:03.354Z,101025.72
2018-06-10T20:28:31.949Z,101020.63
2018-06-10T20:31:00.508Z,101017.55
2018-06-10T20:33:28.982Z,101024.20
2018-06-10T20:35:57.698Z,101032.20
2018-06-10T20:38:26.432Z,101032.00
2018-06-10T20:40:55.098Z,101032.56
2018-06-10T20:43:23.828Z,101036.91
2018-06-10T20:45:52.577Z,101047.34
2018-06-10T20:48:21.315Z,101040.23
2018-06-10T20:50:50.044Z,101041.39
2018-06-10T20:53:18.916Z,101041.58
2018-06-10T20:55:47.865Z,101035.84
2018-06-10T20:58:16.269Z,101044.94
2018-06-10T21:00:44.844Z,101047.37
2018-06-10T21:03:13.459Z,101040.66
2018-06-10T21:05:41.772Z,101043.31
2018-06-10T21:08:10.360Z,101035.97
2018-06-10T21:10:38.889Z,101039.25
2018-06-10T21:13:07.363Z,101049.59
2018-06-10T21:15:36.173Z,101048.73
2018-06-10T21:18:04.982Z,101049.91
2018-06-10T21:20:33.421Z,101051.05
2018-06-10T21:23:02.145Z,101039.83
2018-06-10T21:25:30.563Z,101040.27
2018-06-10T21:27:58.989Z,101051.65
2018-06-10T21:30:27.538Z,101049.05
2018-06-10T21:32:56.078Z,101055.16
2018-06-10T21:35:24.942Z,101052.95
2018-06-10T21:37:53.587Z,101048.23
2018-06-10T21:40:23.362Z,101045.73
2018-06-10T21:42:52.049Z,101039.80
2018-06-10T21:45:20.634Z,101045.91
2018-06-10T21:47:49.071Z,101035.98
2018-06-10T21:50:17.639Z,101056.86
2018-06-10T21:52:46.108Z,101054.61
2018-06-10T21:55:15.067Z,101056.75
2018-06-10T21:57:44.025Z,101055.42
2018-06-10T22:00:24.304Z,101059.60
2018-06-10T22:02:53.527Z,101061.53
2018-06-10T22:05:22.384Z,101061.53
2018-06-10T22:07:51.246Z,101064.79
2018-06-10T22:10:19.732Z,101062.31
2018-06-10T22:12:48.434Z,101060.96
2018-06-10T22:15:17.085Z,101073.70
2018-06-10T22:17:45.588Z,101074.72
2018-06-10T22:20:14.180Z,101081.02
2018-06-10T22:22:42.782Z,101083.94
2018-06-10T22:25:11.260Z,101088.78
2018-06-10T22:27:40.239Z,101104.16
2018-06-10T22:30:08.824Z,101105.95
2018-06-10T22:32:37.359Z,101100.79
2018-06-10T22:35:06.107Z,101111.36
2018-06-10T22:37:34.717Z,101125.77
2018-06-10T22:40:03.468Z,101114.15
2018-06-10T22:42:31.995Z,101116.52
2018-06-10T22:45:00.779Z,101115.59
2018-06-10T22:47:29.305Z,101112.88
2018-06-10T22:49:58.008Z,101113.09
2018-06-10T22:52:26.465Z,101115.13
2018-06-10T22:54:55.717Z,101114.41
2018-06-10T22:57:24.399Z,101118.73
2018-06-10T22:59:52.909Z,101128.86
2018-06-10T23:02:21.257Z,101128.79
2018-06-10T23:04:50.123Z,101131.30
2018-06-10T23:07:18.715Z,101133.57
2018-06-10T23:09:47.281Z,101130.31
2018-06-10T23:12:15.883Z,101128.86
2018-06-10T23:14:44.301Z,101127.42
2018-06-10T23:17:13.060Z,101124.05
2018-06-10T23:19:41.620Z,101118.13
2018-06-10T23:22:10.230Z,101123.19
2018-06-10T23:24:38.838Z,101130.97
2018-06-10T23:27:07.542Z,101123.91
2018-06-10T23:29:36.113Z,101124.72
2018-06-10T23:32:04.815Z,101130.81
2018-06-10T23:34:33.111Z,101127.26
2018-06-10T23:37:01.818Z,101134.09
2018-06-10T23:39:30.375Z,101130.31
2018-06-10T23:41:58.872Z,101129.95
2018-06-10T23:44:27.535Z,101117.56
2018-06-10T23:46:56.148Z,101123.10
2018-06-10T23:49:24.693Z,101122.71
2018-06-10T23:51:53.191Z,101119.52
2018-06-10T23:54:21.612Z,101119.33
2018-06-10T23:56:50.142Z,101118.63
2018-06-10T23:59:18.540Z,101124.50
